createdAt,value
2019-04-30T19:16:19.414Z,79.60
2019-04-30T19:18:42.247Z,79.10
2019-04-30T19:21:11.232Z,79.60
2019-04-30T19:23:42.815Z,78.30
2019-04-30T19:26:11.247Z,78.30
2019-04-30T19:28:39.697Z,78.40
2019-04-30T19:31:09.178Z,77.90
2019-04-30T19:33:38.947Z,78.40
2019-04-30T19:36:09.633Z,76.80
2019-04-30T19:38:57.207Z,77.30
2019-04-30T19:41:25.687Z,77.30
2019-04-30T19:43:54.209Z,78.60
2019-04-30T19:46:22.709Z,79.70
2019-04-30T19:48:51.267Z,80.50
2019-04-30T19:51:19.885Z,81.10
2019-04-30T19:53:48.971Z,82.30
2019-04-30T19:56:20.581Z,82.40
2019-04-30T19:58:59.712Z,81.70
2019-04-30T20:01:19.324Z,81.40
2019-04-30T20:03:47.854Z,80.90
2019-04-30T20:06:16.271Z,80.80
2019-04-30T20:08:44.762Z,81.30
2019-04-30T20:11:13.153Z,81.30
2019-04-30T20:13:41.604Z,82.10
2019-04-30T20:16:10.029Z,82.60
2019-04-30T20:18:38.970Z,82.90
2019-04-30T20:21:09.345Z,83.40
2019-04-30T20:23:37.846Z,84.00
2019-04-30T20:26:06.339Z,84.60
2019-04-30T20:28:41.432Z,84.10
2019-04-30T20:31:04.962Z,84.50
2019-04-30T20:33:33.426Z,84.70
2019-04-30T20:36:01.871Z,85.30
2019-04-30T20:38:34.663Z,85.00
2019-04-30T20:41:04.897Z,85.70
2019-04-30T20:43:33.303Z,86.00
2019-04-30T20:46:01.753Z,86.40
2019-04-30T20:48:30.202Z,86.20
2019-04-30T20:51:01.072Z,86.30
2019-04-30T20:53:28.846Z,86.40
2019-04-30T20:55:59.181Z,86.00
2019-04-30T20:58:27.396Z,86.30
2019-04-30T21:01:03.592Z,84.40
2019-04-30T21:03:25.934Z,84.10
2019-04-30T21:05:54.386Z,83.50
2019-04-30T21:08:22.815Z,83.40
2019-04-30T21:10:51.267Z,82.70
2019-04-30T21:13:19.689Z,83.10
2019-04-30T21:15:49.614Z,83.40
2019-04-30T21:18:19.573Z,83.80
2019-04-30T21:20:49.659Z,84.90
2019-04-30T21:23:19.446Z,84.40
2019-04-30T21:25:48.767Z,84.00
2019-04-30T21:28:19.503Z,82.80
2019-04-30T21:30:47.190Z,82.80
2019-04-30T21:33:23.511Z,82.50
2019-04-30T21:35:58.693Z,82.40
2019-04-30T21:38:32.767Z,82.40
2019-04-30T21:41:01.334Z,82.60
2019-04-30T21:43:29.775Z,83.00
2019-04-30T21:45:59.414Z,83.30
2019-04-30T21:48:28.794Z,83.70
2019-04-30T21:50:59.198Z,84.40
2019-04-30T21:53:36.374Z,84.80
2019-04-30T21:56:04.827Z,84.90
2019-04-30T21:58:33.277Z,85.40
2019-04-30T22:01:12.303Z,85.30
2019-04-30T22:03:41.551Z,85.80
2019-04-30T22:06:10.688Z,86.80
2019-04-30T22:08:39.332Z,87.20
2019-04-30T22:11:09.602Z,87.10
2019-04-30T22:13:39.698Z,88.20
2019-04-30T22:16:08.325Z,88.30
2019-04-30T22:18:36.770Z,88.30
2019-04-30T22:21:05.219Z,88.00
2019-04-30T22:23:33.711Z,88.00
2019-04-30T22:26:02.188Z,88.10
2019-04-30T22:28:30.620Z,88.60
2019-04-30T22:30:59.087Z,88.90
2019-04-30T22:33:29.194Z,89.10
2019-04-30T22:35:59.275Z,89.30
2019-04-30T22:38:39.042Z,90.10
2019-04-30T22:41:19.375Z,91.00
2019-04-30T22:43:59.824Z,91.50
2019-04-30T22:49:54.521Z,92.10
2019-04-30T22:53:02.883Z,92.60
2019-04-30T22:55:32.123Z,93.10
2019-04-30T22:58:01.204Z,93.10
2019-04-30T23:00:34.484Z,93.40
2019-04-30T23:03:07.084Z,93.70
2019-04-30T23:05:35.594Z,94.10
2019-04-30T23:08:04.213Z,93.80
2019-04-30T23:10:34.594Z,93.90
2019-04-30T23:13:03.185Z,94.70
2019-04-30T23:15:38.062Z,95.10
2019-04-30T23:18:13.929Z,95.20
2019-04-30T23:24:18.824Z,95.40
2019-04-30T23:26:51.726Z,95.10
2019-04-30T23:29:27.650Z,94.70
2019-04-30T23:31:58.203Z,95.10
2019-04-30T23:34:28.087Z,95.90
2019-04-30T23:36:56.931Z,96.30
2019-04-30T23:39:34.725Z,97.00
2019-04-30T23:42:06.926Z,97.20
2019-04-30T23:44:38.137Z,97.30
2019-04-30T23:47:08.187Z,97.40
2019-04-30T23:49:41.167Z,97.30
2019-04-30T23:52:35.611Z,97.10
2019-04-30T23:55:13.682Z,97.00
2019-04-30T23:58:00.206Z,96.40
